Terminal Aerodrome Forecast
Issued by NWS

Home | Current Version | Previous Version | Text Only | Print | Product List | Glossary On
Versions: 1 2 3 4 5 6 7 8 9 10 11 12 13
000
FTUS44 KLIX 012337
TAFGPT
TAF
KGPT 012337Z 0200/0224 VRB05KT P6SM SCT025 BKN080
     FM020200 25005KT P6SM SCT060 SCT110 BKN250
     FM021300 22007KT P6SM SCT025
     FM021700 21009KT P6SM SCT035=

USA.gov is the U.S. government's official web portal to all federal, state and local government web resources and services.